Time;durP1;ratioP1;P1;durP2;ratioP2;P2;SDS_P1;SDS_P2;PMS_P1;PMS_P2;Temp;Humidity;BMP_temperature;BMP_pressure;BME280_temperature;BME280_humidity;BME280_pressure;Samples;Min_cycle;Max_cycle;Signal;HPM_P1;HPM_P2
2022/03/18 00:02:26;;;;;;;54.93;24.43;;;8.30;96.40;;;;;;5078248;28;20420;-77
2022/03/18 00:04:53;;;;;;;48.27;21.33;;;8.30;96.40;;;;;;5094058;28;20930;-77
2022/03/18 00:07:20;;;;;;;51.67;22.27;;;8.30;96.40;;;;;;5091404;28;20425;-75
2022/03/18 00:09:50;;;;;;;49.97;22.30;;;8.40;96.40;;;;;;5091260;28;20817;-75
2022/03/18 00:12:16;;;;;;;54.70;21.90;;;8.40;96.30;;;;;;5091040;28;20445;-75
2022/03/18 00:14:42;;;;;;;42.00;21.50;;;8.40;96.30;;;;;;5090761;28;20424;-76
2022/03/18 00:17:09;;;;;;;43.67;19.87;;;8.50;96.10;;;;;;5094984;28;20909;-73
2022/03/18 00:19:36;;;;;;;47.97;20.90;;;8.50;95.80;;;;;;5092261;28;20457;-75
2022/03/18 00:22:03;;;;;;;43.60;20.20;;;8.40;95.40;;;;;;5091999;28;20445;-75
2022/03/18 00:24:31;;;;;;;42.37;20.57;;;8.40;95.30;;;;;;5090514;28;20471;-77
2022/03/18 00:27:00;;;;;;;45.50;20.10;;;8.40;95.20;;;;;;5090188;28;20425;-77
2022/03/18 00:29:27;;;;;;;40.00;18.20;;;8.40;95.00;;;;;;5089432;28;20414;-76
2022/03/18 00:31:54;;;;;;;47.07;19.60;;;8.30;94.70;;;;;;5090677;28;20498;-75
2022/03/18 00:34:20;;;;;;;38.43;16.97;;;8.30;94.70;;;;;;5091239;28;20425;-76
2022/03/18 00:36:46;;;;;;;40.67;19.30;;;8.30;94.90;;;;;;5090555;28;20767;-77
2022/03/18 00:39:11;;;;;;;43.07;19.27;;;8.30;95.00;;;;;;5089876;28;20477;-78
2022/03/18 00:41:37;;;;;;;40.00;18.30;;;8.40;95.00;;;;;;5090119;28;20906;-76
2022/03/18 00:44:03;;;;;;;38.10;17.60;;;8.40;94.90;;;;;;5090627;28;20429;-76
2022/03/18 00:46:29;;;;;;;39.83;18.30;;;8.40;95.00;;;;;;5093598;28;20429;-77
2022/03/18 00:52:03;;;;;;;39.60;18.60;;;8.40;94.50;;;;;;5084197;28;20229;-77
2022/03/18 00:54:32;;;;;;;36.67;18.10;;;8.40;94.50;;;;;;5073189;28;20935;-75
2022/03/18 00:56:58;;;;;;;46.43;19.80;;;8.40;94.60;;;;;;5070268;28;20486;-75
2022/03/18 00:59:24;;;;;;;36.77;18.50;;;8.40;94.70;;;;;;5089006;28;20464;-77
2022/03/18 01:01:53;;;;;;;39.70;17.47;;;8.40;94.60;;;;;;5088415;28;20445;-74
2022/03/18 01:04:19;;;;;;;31.27;16.23;;;8.40;94.40;;;;;;5088057;28;20294;-74
2022/03/18 01:06:46;;;;;;;32.17;15.93;;;8.40;94.30;;;;;;5076031;28;20440;-77
2022/03/18 01:09:12;;;;;;;40.80;19.07;;;8.40;94.20;;;;;;5090395;28;20459;-76
2022/03/18 01:11:37;;;;;;;35.73;16.70;;;8.40;94.10;;;;;;5090267;28;20452;-75
2022/03/18 01:14:03;;;;;;;40.43;16.93;;;8.30;94.20;;;;;;5090019;28;20226;-75
2022/03/18 01:16:29;;;;;;;38.37;17.60;;;8.30;94.20;;;;;;5090258;28;20248;-75
2022/03/18 01:18:55;;;;;;;43.73;17.40;;;8.30;94.30;;;;;;5089934;28;20676;-74
2022/03/18 01:21:21;;;;;;;39.80;17.77;;;8.30;94.50;;;;;;5090047;28;20445;-75
2022/03/18 01:23:46;;;;;;;38.93;16.67;;;8.40;94.50;;;;;;5089338;28;20187;-75
2022/03/18 01:26:12;;;;;;;32.80;15.60;;;8.40;94.30;;;;;;5089920;28;20636;-73
2022/03/18 01:28:38;;;;;;;37.23;16.77;;;8.40;94.10;;;;;;5089850;28;20240;-72
2022/03/18 01:31:04;;;;;;;34.30;16.77;;;8.40;93.80;;;;;;5072279;28;20665;-75
2022/03/18 01:33:29;;;;;;;34.60;16.50;;;8.30;93.80;;;;;;5089866;28;20611;-76
2022/03/18 01:35:55;;;;;;;37.83;16.23;;;8.30;93.90;;;;;;5089919;28;20600;-75
2022/03/18 01:38:21;;;;;;;38.07;16.93;;;8.30;94.10;;;;;;5089771;28;20182;-76
2022/03/18 01:40:46;;;;;;;31.83;15.37;;;8.20;93.80;;;;;;5090089;28;20207;-76
2022/03/18 01:43:12;;;;;;;32.70;16.13;;;8.20;94.00;;;;;;5089815;28;20190;-75
2022/03/18 01:45:39;;;;;;;37.77;15.53;;;8.20;94.10;;;;;;5090415;28;20187;-75
2022/03/18 01:48:05;;;;;;;33.50;15.57;;;8.30;94.10;;;;;;5090295;28;20195;-76
2022/03/18 01:50:32;;;;;;;33.67;16.07;;;8.30;94.00;;;;;;5091472;28;20443;-74
2022/03/18 01:52:58;;;;;;;34.90;15.80;;;8.30;94.00;;;;;;5085787;28;20935;-74
2022/03/18 01:55:26;;;;;;;35.20;14.97;;;8.30;94.10;;;;;;5089142;28;20421;-75
2022/03/18 01:57:53;;;;;;;29.33;14.47;;;8.40;94.10;;;;;;5076800;28;20428;-75
2022/03/18 02:00:19;;;;;;;32.73;16.63;;;8.30;93.60;;;;;;5090168;28;20465;-74
2022/03/18 02:02:46;;;;;;;34.90;16.27;;;8.30;93.50;;;;;;5089535;28;20409;-76
2022/03/18 02:05:13;;;;;;;32.03;15.67;;;8.30;93.70;;;;;;5089568;28;20491;-74
2022/03/18 02:07:39;;;;;;;31.90;15.87;;;8.30;93.60;;;;;;5090076;28;20419;-75
2022/03/18 02:10:06;;;;;;;30.53;14.50;;;8.30;93.60;;;;;;5089773;28;20421;-75
2022/03/18 02:12:32;;;;;;;40.40;15.10;;;8.30;93.70;;;;;;5090180;28;20544;-76
2022/03/18 02:14:58;;;;;;;33.00;13.93;;;8.40;93.70;;;;;;5093336;28;20981;-76
2022/03/18 02:17:24;;;;;;;30.03;15.37;;;8.40;93.40;;;;;;5094727;28;20417;-77
2022/03/18 02:19:50;;;;;;;30.33;14.40;;;8.40;93.00;;;;;;5094588;28;20209;-76
2022/03/18 02:22:19;;;;;;;30.87;14.53;;;8.30;93.00;;;;;;5093460;28;20274;-74
2022/03/18 02:24:47;;;;;;;32.40;15.27;;;8.30;93.00;;;;;;5100917;28;20183;-74
2022/03/18 02:27:14;;;;;;;30.77;13.90;;;8.30;93.00;;;;;;5099874;28;20493;-74
2022/03/18 02:29:41;;;;;;;34.17;14.27;;;8.30;93.00;;;;;;5094082;28;20451;-76
2022/03/18 02:32:08;;;;;;;29.00;14.00;;;8.40;93.00;;;;;;5106190;28;20437;-77
2022/03/18 02:34:35;;;;;;;28.43;13.67;;;8.40;93.10;;;;;;5097838;28;20421;-76
2022/03/18 02:37:01;;;;;;;26.03;12.90;;;8.40;93.00;;;;;;5079730;28;20532;-76
2022/03/18 02:39:27;;;;;;;30.97;14.90;;;8.50;92.70;;;;;;5094466;28;20465;-73
2022/03/18 02:41:53;;;;;;;28.10;14.10;;;8.50;92.70;;;;;;5095782;28;20532;-77
2022/03/18 02:44:19;;;;;;;25.63;13.50;;;8.40;92.60;;;;;;5095201;28;20175;-74
2022/03/18 02:46:44;;;;;;;32.37;15.57;;;8.40;92.60;;;;;;5094020;28;20827;-75
2022/03/18 02:49:11;;;;;;;27.30;13.53;;;8.40;92.70;;;;;;5093665;28;20234;-77
2022/03/18 02:51:37;;;;;;;33.73;14.67;;;8.40;92.40;;;;;;5094490;28;20226;-77
2022/03/18 02:54:07;;;;;;;33.73;14.93;;;8.30;92.50;;;;;;5095006;28;20455;-75
2022/03/18 02:56:34;;;;;;;34.50;17.20;;;8.30;92.60;;;;;;5098303;28;20500;-74
2022/03/18 02:59:00;;;;;;;37.87;15.43;;;8.20;92.50;;;;;;5094132;28;20477;-75
2022/03/18 03:01:27;;;;;;;32.23;14.40;;;8.20;92.50;;;;;;5092592;28;20425;-75
2022/03/18 03:03:54;;;;;;;32.30;15.27;;;8.10;92.70;;;;;;5091749;28;20424;-75
2022/03/18 03:09:04;;;;;;;33.07;14.60;;;8.20;93.00;;;;;;5092696;28;20496;-75
2022/03/18 03:11:30;;;;;;;31.20;14.80;;;8.10;92.90;;;;;;5092517;28;20445;-75
2022/03/18 03:13:56;;;;;;;31.17;14.30;;;8.20;92.80;;;;;;5091490;28;20179;-75
2022/03/18 03:16:21;;;;;;;27.27;15.20;;;8.10;92.80;;;;;;5092318;28;20175;-75
2022/03/18 03:18:48;;;;;;;31.90;14.60;;;8.10;92.60;;;;;;5092058;28;20484;-75
2022/03/18 03:21:14;;;;;;;29.30;13.60;;;8.10;92.80;;;;;;5092499;28;20290;-75
2022/03/18 03:23:41;;;;;;;27.13;14.03;;;8.10;92.80;;;;;;5091295;28;20417;-75
2022/03/18 03:26:07;;;;;;;30.27;14.03;;;8.10;93.00;;;;;;5092155;28;20426;-75
2022/03/18 03:28:33;;;;;;;35.20;15.10;;;8.10;93.10;;;;;;5081163;28;20429;-75
2022/03/18 03:30:58;;;;;;;31.10;13.53;;;8.10;92.90;;;;;;5090498;28;20449;-75
2022/03/18 03:33:25;;;;;;;32.20;14.07;;;8.10;92.80;;;;;;5092079;28;20171;-76
2022/03/18 03:35:50;;;;;;;30.50;13.47;;;8.10;92.70;;;;;;5092428;28;20202;-76
2022/03/18 03:38:16;;;;;;;28.97;14.00;;;8.10;92.40;;;;;;5092156;28;20803;-77
2022/03/18 03:40:43;;;;;;;33.97;14.53;;;8.00;92.60;;;;;;5092395;28;20434;-75
2022/03/18 03:43:09;;;;;;;32.90;14.47;;;8.00;92.70;;;;;;5092199;28;20186;-75
2022/03/18 03:45:38;;;;;;;29.07;12.63;;;8.00;92.70;;;;;;5092103;28;20413;-75
2022/03/18 03:48:05;;;;;;;30.17;14.03;;;8.10;92.80;;;;;;5091731;28;20452;-75
2022/03/18 03:50:32;;;;;;;30.07;13.97;;;8.10;92.90;;;;;;5080769;28;21222;-75
2022/03/18 03:52:57;;;;;;;29.80;13.70;;;8.10;92.80;;;;;;5088391;28;20449;-75
2022/03/18 03:55:23;;;;;;;28.93;12.90;;;8.10;92.50;;;;;;5091914;28;20421;-75
2022/03/18 03:57:49;;;;;;;29.40;13.53;;;8.10;92.30;;;;;;5092086;28;20191;-74
2022/03/18 04:00:15;;;;;;;33.00;13.27;;;8.00;92.30;;;;;;5092122;28;20206;-75
2022/03/18 04:02:43;;;;;;;28.40;14.30;;;8.00;92.50;;;;;;5092260;28;20183;-76
2022/03/18 04:05:10;;;;;;;30.17;14.20;;;8.10;92.60;;;;;;5092469;28;20512;-75
2022/03/18 04:07:37;;;;;;;36.77;13.90;;;8.10;92.60;;;;;;5091327;28;20424;-76
2022/03/18 04:10:04;;;;;;;32.00;15.60;;;8.10;92.30;;;;;;5092271;28;20421;-76
2022/03/18 04:12:32;;;;;;;29.73;14.20;;;8.20;92.50;;;;;;5093233;28;20419;-76
2022/03/18 04:15:02;;;;;;;26.73;12.73;;;8.20;92.20;;;;;;5093938;28;20955;-75
2022/03/18 04:17:36;;;;;;;30.70;14.83;;;8.20;92.10;;;;;;5092067;28;20413;-74
2022/03/18 04:20:05;;;;;;;30.77;13.23;;;8.30;92.00;;;;;;5091452;28;20578;-77
2022/03/18 04:22:31;;;;;;;29.93;13.73;;;8.30;91.80;;;;;;5091324;28;20501;-77
2022/03/18 04:24:57;;;;;;;28.57;13.20;;;8.30;91.70;;;;;;5089576;28;20424;-76
2022/03/18 04:27:23;;;;;;;29.63;14.10;;;8.20;91.60;;;;;;5090924;28;20422;-74
2022/03/18 04:29:49;;;;;;;25.50;12.80;;;8.20;91.60;;;;;;5090998;28;20427;-75
2022/03/18 04:32:15;;;;;;;27.47;13.93;;;8.20;91.60;;;;;;5092504;28;20536;-76
2022/03/18 04:34:40;;;;;;;27.50;13.63;;;8.20;91.60;;;;;;5102601;28;20214;-75
2022/03/18 04:37:06;;;;;;;26.77;12.03;;;8.20;91.50;;;;;;5101132;28;20262;-75
2022/03/18 04:39:33;;;;;;;30.67;14.13;;;8.20;91.60;;;;;;5096857;28;20203;-74
2022/03/18 04:41:58;;;;;;;27.63;13.90;;;8.20;91.60;;;;;;5092028;28;20202;-76
2022/03/18 04:44:24;;;;;;;32.67;14.97;;;8.10;91.60;;;;;;5091656;28;20416;-74
2022/03/18 04:46:50;;;;;;;30.93;13.47;;;8.10;91.70;;;;;;5092206;28;20185;-76
2022/03/18 04:49:16;;;;;;;32.97;14.87;;;8.00;91.50;;;;;;5091922;28;20436;-76
2022/03/18 04:51:42;;;;;;;30.80;15.00;;;8.00;91.60;;;;;;5097733;28;20216;-75
2022/03/18 04:54:08;;;;;;;25.50;12.97;;;8.00;91.70;;;;;;5095702;28;20767;-76
2022/03/18 04:59:20;;;;;;;31.40;14.00;;;8.00;92.00;;;;;;5091834;28;20290;-77
2022/03/18 05:01:47;;;;;;;27.67;13.07;;;8.00;91.70;;;;;;5077172;28;20528;-76
2022/03/18 05:04:12;;;;;;;32.10;14.90;;;8.00;91.90;;;;;;5073496;28;20439;-75
2022/03/18 05:06:39;;;;;;;29.50;14.80;;;8.00;91.70;;;;;;5090143;28;20979;-75
2022/03/18 05:09:05;;;;;;;29.60;13.40;;;8.00;91.50;;;;;;5095236;28;20179;-76
2022/03/18 05:11:31;;;;;;;31.50;14.30;;;8.00;91.50;;;;;;5086011;28;20531;-75
2022/03/18 05:13:58;;;;;;;35.00;14.60;;;8.00;91.50;;;;;;5090344;28;21187;-75
2022/03/18 05:16:25;;;;;;;48.23;15.57;;;8.00;91.50;;;;;;5093599;28;20205;-76
2022/03/18 05:18:51;;;;;;;28.73;13.20;;;8.00;91.60;;;;;;5094738;28;20928;-75
2022/03/18 05:21:17;;;;;;;40.30;15.37;;;8.00;91.60;;;;;;5095636;28;20806;-76
2022/03/18 05:23:43;;;;;;;34.70;14.13;;;8.00;91.30;;;;;;5091218;28;20421;-76
2022/03/18 05:26:09;;;;;;;31.03;14.67;;;8.00;91.20;;;;;;5090905;28;20514;-75
2022/03/18 05:28:36;;;;;;;35.30;15.20;;;7.90;91.40;;;;;;5091472;28;21126;-75
2022/03/18 05:31:01;;;;;;;29.43;13.67;;;7.90;91.50;;;;;;5091792;28;20268;-74
2022/03/18 05:33:27;;;;;;;30.60;15.07;;;7.90;91.30;;;;;;5079542;28;20425;-75
2022/03/18 05:35:53;;;;;;;42.67;16.40;;;7.90;91.30;;;;;;5089614;28;20187;-75
2022/03/18 05:38:19;;;;;;;31.00;14.83;;;7.80;91.30;;;;;;5089501;28;20270;-75
2022/03/18 05:40:45;;;;;;;31.00;15.20;;;7.80;91.50;;;;;;5084767;28;20211;-74
2022/03/18 05:43:11;;;;;;;34.53;15.07;;;7.80;91.60;;;;;;5090206;28;20504;-78
2022/03/18 05:45:36;;;;;;;28.63;14.00;;;7.80;91.60;;;;;;5090021;28;20194;-78
2022/03/18 05:48:03;;;;;;;28.07;13.00;;;7.80;91.70;;;;;;5089734;28;20202;-76
2022/03/18 05:50:30;;;;;;;34.10;16.03;;;7.80;91.80;;;;;;5081464;28;20210;-76
2022/03/18 05:52:55;;;;;;;30.80;14.73;;;7.90;91.80;;;;;;5090403;28;20421;-78
2022/03/18 05:55:21;;;;;;;36.90;16.00;;;7.90;91.60;;;;;;5089696;28;20462;-77
2022/03/18 05:57:47;;;;;;;33.27;15.37;;;8.00;91.40;;;;;;5090374;28;20238;-75
2022/03/18 06:00:15;;;;;;;34.80;15.23;;;8.00;91.20;;;;;;5089810;28;20461;-76
2022/03/18 06:02:41;;;;;;;29.80;14.60;;;8.00;91.30;;;;;;5073477;28;20266;-76
2022/03/18 06:05:08;;;;;;;35.43;15.23;;;8.00;91.30;;;;;;5088159;28;20792;-75
2022/03/18 06:07:36;;;;;;;38.83;17.40;;;8.10;91.20;;;;;;5084637;28;20397;-77
2022/03/18 06:12:46;;;;;;;34.33;16.50;;;8.10;90.80;;;;;;5090947;28;20482;-75
2022/03/18 06:15:12;;;;;;;37.70;16.30;;;8.10;90.80;;;;;;5089561;28;20462;-76
2022/03/18 06:17:38;;;;;;;34.37;15.13;;;8.10;90.80;;;;;;5090576;28;20262;-75
2022/03/18 06:20:04;;;;;;;35.17;15.30;;;8.20;90.70;;;;;;5090045;28;20275;-78
2022/03/18 06:22:30;;;;;;;35.77;15.43;;;8.20;90.60;;;;;;5090362;28;20179;-76
2022/03/18 06:24:56;;;;;;;34.73;15.83;;;8.10;90.40;;;;;;5089262;28;20471;-76
2022/03/18 06:27:21;;;;;;;40.23;17.20;;;8.10;90.60;;;;;;5089806;28;20176;-75
2022/03/18 06:29:47;;;;;;;41.50;17.03;;;8.00;90.60;;;;;;5090174;28;20220;-76
2022/03/18 06:32:13;;;;;;;38.13;16.43;;;8.00;90.70;;;;;;5079554;28;20210;-78
2022/03/18 06:34:38;;;;;;;33.63;15.87;;;8.00;91.00;;;;;;5075525;28;20212;-76
2022/03/18 06:37:04;;;;;;;40.50;16.20;;;8.00;90.80;;;;;;5090676;28;20262;-78
2022/03/18 06:39:30;;;;;;;39.47;17.50;;;8.00;90.80;;;;;;5091904;28;20202;-76
2022/03/18 06:41:56;;;;;;;39.57;17.90;;;8.00;90.70;;;;;;5093072;28;20746;-76
2022/03/18 06:44:23;;;;;;;36.63;15.80;;;8.00;90.70;;;;;;5095740;28;20205;-75
2022/03/18 06:46:49;;;;;;;36.10;16.80;;;8.10;90.90;;;;;;5101231;28;20548;-78
2022/03/18 06:49:15;;;;;;;39.43;17.47;;;8.20;90.70;;;;;;5090701;28;20433;-77
2022/03/18 06:51:41;;;;;;;44.70;18.00;;;8.20;90.50;;;;;;5086166;28;20441;-77
2022/03/18 06:54:07;;;;;;;34.77;16.47;;;8.10;90.40;;;;;;5095118;28;20425;-75
2022/03/18 06:56:33;;;;;;;34.87;17.13;;;8.10;90.50;;;;;;5090515;28;20505;-77
2022/03/18 06:58:59;;;;;;;42.60;17.50;;;8.10;90.60;;;;;;5090960;28;20453;-75
2022/03/18 07:01:25;;;;;;;34.47;16.20;;;8.20;90.70;;;;;;5093624;28;20433;-76
2022/03/18 07:03:51;;;;;;;42.93;18.50;;;8.20;90.70;;;;;;5093156;28;20413;-78
2022/03/18 07:06:17;;;;;;;39.00;17.97;;;8.30;90.50;;;;;;5085749;28;20581;-77
2022/03/18 07:08:43;;;;;;;41.63;18.90;;;8.30;90.30;;;;;;5092259;28;20417;-77
2022/03/18 07:11:13;;;;;;;44.10;20.57;;;8.30;90.30;;;;;;5077010;28;20199;-77
2022/03/18 07:13:43;;;;;;;42.50;18.53;;;8.40;90.10;;;;;;5089372;28;20411;-76
2022/03/18 07:18:54;;;;;;;45.73;20.33;;;8.40;90.10;;;;;;5098748;28;20467;-76
2022/03/18 07:21:20;;;;;;;50.53;22.20;;;8.40;90.00;;;;;;5079014;28;20434;-77
2022/03/18 07:23:47;;;;;;;38.33;18.90;;;8.50;89.90;;;;;;5080105;28;20419;-77
2022/03/18 07:26:12;;;;;;;40.33;18.80;;;8.50;89.50;;;;;;5094324;28;20417;-75
2022/03/18 07:28:38;;;;;;;41.63;20.93;;;8.50;89.60;;;;;;5096632;28;20421;-78
2022/03/18 07:31:04;;;;;;;49.70;20.60;;;8.70;89.60;;;;;;5096562;28;20206;-79
2022/03/18 07:33:30;;;;;;;52.90;20.00;;;8.60;88.70;;;;;;5096526;28;20176;-78
2022/03/18 07:35:56;;;;;;;46.83;21.00;;;8.60;88.90;;;;;;5084360;28;20183;-76
2022/03/18 07:38:22;;;;;;;46.73;20.53;;;8.60;89.00;;;;;;5096644;28;20437;-76
2022/03/18 07:40:48;;;;;;;49.67;21.33;;;8.70;89.00;;;;;;5100690;28;20437;-76
2022/03/18 07:43:14;;;;;;;46.30;21.43;;;8.70;88.40;;;;;;5106640;28;20425;-78
2022/03/18 07:45:40;;;;;;;56.77;21.87;;;8.70;88.00;;;;;;5083088;28;20444;-77
2022/03/18 07:48:08;;;;;;;58.00;24.40;;;8.80;88.00;;;;;;5093023;28;20229;-76
2022/03/18 07:50:38;;;;;;;58.40;22.53;;;8.80;87.60;;;;;;5093489;28;20465;-78
2022/03/18 07:53:07;;;;;;;48.57;23.10;;;8.70;87.80;;;;;;5093705;28;20431;-77
2022/03/18 07:55:35;;;;;;;56.37;25.10;;;8.80;88.40;;;;;;5074614;28;20946;-78
2022/03/18 07:58:01;;;;;;;59.63;23.80;;;8.80;87.60;;;;;;5074479;28;20452;-78
2022/03/18 08:00:27;;;;;;;61.97;25.33;;;8.80;87.80;;;;;;5093851;28;20469;-77
2022/03/18 08:02:54;;;;;;;56.97;26.07;;;8.80;87.60;;;;;;5095038;28;20430;-77
2022/03/18 08:05:21;;;;;;;63.03;26.13;;;8.80;87.00;;;;;;5081181;28;20452;-77
2022/03/18 08:07:47;;;;;;;65.43;24.83;;;8.80;87.40;;;;;;5075602;28;20429;-75
2022/03/18 08:10:14;;;;;;;59.40;23.70;;;8.80;87.30;;;;;;5094855;28;20421;-78
2022/03/18 08:12:42;;;;;;;57.23;25.20;;;8.90;87.30;;;;;;5094950;28;20456;-77
2022/03/18 08:15:14;;;;;;;59.17;25.43;;;8.90;86.90;;;;;;5086716;28;20433;-77
2022/03/18 08:17:41;;;;;;;56.10;27.07;;;9.00;87.00;;;;;;5094664;28;20727;-78
2022/03/18 08:20:09;;;;;;;68.83;27.20;;;9.10;86.80;;;;;;5095921;28;20510;-76
2022/03/18 08:22:35;;;;;;;58.03;24.60;;;9.20;85.90;;;;;;5097170;28;20768;-76
2022/03/18 08:25:02;;;;;;;52.50;23.87;;;9.20;85.00;;;;;;5097857;28;20417;-78
2022/03/18 08:27:27;;;;;;;61.03;25.97;;;9.20;85.00;;;;;;5095933;28;20421;-77
2022/03/18 08:29:57;;;;;;;63.40;26.23;;;9.30;84.70;;;;;;5091902;28;20474;-76
2022/03/18 08:32:25;;;;;;;59.57;26.10;;;9.30;84.30;;;;;;5074514;28;20229;-76
2022/03/18 08:34:50;;;;;;;59.97;26.00;;;9.30;83.60;;;;;;5076139;28;20429;-76
2022/03/18 08:37:56;;;;;;;58.60;25.70;;;9.30;83.40;;;;;;5085210;28;20524;-76
2022/03/18 08:40:02;;;;;;;59.27;24.03;;;9.30;83.10;;;;;;5092084;28;20275;-77
2022/03/18 08:42:28;;;;;;;62.10;26.00;;;9.30;83.70;;;;;;5092507;28;20498;-77
2022/03/18 08:44:53;;;;;;;54.73;24.83;;;9.40;83.10;;;;;;5091790;28;20847;-77
2022/03/18 08:47:19;;;;;;;64.80;28.07;;;9.50;82.80;;;;;;5092303;28;20698;-76
2022/03/18 08:49:45;;;;;;;51.97;23.90;;;9.50;81.70;;;;;;5099641;28;20210;-79
2022/03/18 08:52:11;;;;;;;53.10;24.27;;;9.60;81.50;;;;;;5096844;28;20199;-79
2022/03/18 08:54:36;;;;;;;61.80;24.70;;;9.60;81.20;;;;;;5096522;28;20417;-79
2022/03/18 08:57:02;;;;;;;57.53;25.77;;;9.60;80.90;;;;;;5095633;28;20882;-78
2022/03/18 08:59:28;;;;;;;57.30;25.47;;;9.60;81.40;;;;;;5081940;28;20214;-78
2022/03/18 09:01:54;;;;;;;50.77;23.87;;;9.50;80.90;;;;;;5095579;28;20514;-79
2022/03/18 09:04:20;;;;;;;57.83;24.77;;;9.50;81.50;;;;;;5095633;28;20175;-78
2022/03/18 09:06:47;;;;;;;56.47;25.50;;;9.50;81.20;;;;;;5095989;28;20171;-80
2022/03/18 09:09:12;;;;;;;49.03;22.40;;;9.40;81.70;;;;;;5095909;28;20421;-78
2022/03/18 09:11:38;;;;;;;51.93;23.70;;;9.40;81.70;;;;;;5096016;28;20523;-79
2022/03/18 09:14:04;;;;;;;52.93;24.17;;;9.40;81.70;;;;;;5097157;28;20257;-78
2022/03/18 09:16:30;;;;;;;42.37;20.80;;;9.40;81.20;;;;;;5095395;28;20633;-79
2022/03/18 09:18:56;;;;;;;51.70;24.27;;;9.50;81.10;;;;;;5088533;28;20205;-79
2022/03/18 09:21:21;;;;;;;52.20;22.80;;;9.50;80.60;;;;;;5095844;28;20437;-79
2022/03/18 09:23:47;;;;;;;53.90;23.90;;;9.40;80.60;;;;;;5094112;28;20183;-80
2022/03/18 09:26:13;;;;;;;44.53;22.13;;;9.30;80.90;;;;;;5095425;28;20182;-79
2022/03/18 09:28:40;;;;;;;54.40;22.40;;;9.40;80.50;;;;;;5095750;28;20179;-78
2022/03/18 09:31:06;;;;;;;48.53;22.33;;;9.40;80.50;;;;;;5103340;28;20253;-79
2022/03/18 09:33:31;;;;;;;50.63;21.07;;;9.40;79.90;;;;;;5112505;28;20416;-80
2022/03/18 09:35:57;;;;;;;48.30;22.40;;;9.50;80.30;;;;;;5107217;28;20421;-79
2022/03/18 09:38:23;;;;;;;50.37;21.53;;;9.50;79.70;;;;;;5112706;28;20179;-79
2022/03/18 09:40:49;;;;;;;50.63;22.30;;;9.50;79.70;;;;;;5113381;28;20236;-81
2022/03/18 09:43:14;;;;;;;50.23;23.43;;;9.60;79.30;;;;;;5112845;28;20187;-79
2022/03/18 09:45:40;;;;;;;45.67;21.73;;;9.60;79.20;;;;;;5115308;28;20186;-81
2022/03/18 09:48:11;;;;;;;50.33;23.20;;;9.70;79.00;;;;;;5103490;28;20213;-81
2022/03/18 09:50:39;;;;;;;48.47;20.63;;;9.70;78.70;;;;;;5104160;28;20456;-82
2022/03/18 09:53:06;;;;;;;48.87;22.00;;;9.60;78.60;;;;;;5083859;28;20532;-82
2022/03/18 09:55:37;;;;;;;54.13;23.57;;;9.60;78.40;;;;;;5094355;28;20490;-79
2022/03/18 09:58:03;;;;;;;46.20;20.97;;;9.50;78.40;;;;;;5095095;28;20417;-81
2022/03/18 10:00:29;;;;;;;47.30;20.67;;;9.50;79.00;;;;;;5094861;28;20476;-79
2022/03/18 10:03:07;;;;;;;51.37;21.97;;;9.70;78.60;;;;;;5094878;28;20179;-79
2022/03/18 10:05:33;;;;;;;49.57;21.13;;;9.80;78.30;;;;;;5094832;28;20955;-79
2022/03/18 10:07:59;;;;;;;52.40;23.90;;;9.90;77.30;;;;;;5079180;28;20414;-78
2022/03/18 10:10:27;;;;;;;47.67;23.17;;;9.90;77.60;;;;;;5094673;28;20214;-81
2022/03/18 10:12:56;;;;;;;45.83;21.50;;;10.00;76.50;;;;;;5076804;28;20191;-79
2022/03/18 10:15:28;;;;;;;53.33;24.37;;;9.90;76.20;;;;;;5089797;28;20456;-78
2022/03/18 10:17:56;;;;;;;54.90;21.90;;;9.90;76.40;;;;;;5102420;28;20435;-80
2022/03/18 10:20:33;;;;;;;48.70;22.70;;;10.00;76.80;;;;;;5109543;28;20457;-79
2022/03/18 10:23:23;;;;;;;49.30;21.20;;;10.20;76.40;;;;;;5097800;28;20409;-81
2022/03/18 10:25:53;;;;;;;49.97;22.67;;;10.20;74.60;;;;;;5080885;28;20903;-79
2022/03/18 10:28:36;;;;;;;50.90;22.47;;;10.20;74.60;;;;;;5075386;28;20420;-79
2022/03/18 10:31:11;;;;;;;50.50;21.23;;;10.30;74.80;;;;;;5074200;28;20532;-81
2022/03/18 10:39:35;;;;;;;51.70;22.90;;;10.40;73.50;;;;;;5110624;28;20533;-81
2022/03/18 10:42:10;;;;;;;51.03;21.87;;;10.40;73.60;;;;;;5115330;28;20432;-80
2022/03/18 10:45:09;;;;;;;49.63;22.93;;;10.40;73.90;;;;;;5095361;28;20420;-81
2022/03/18 10:47:40;;;;;;;55.40;24.33;;;10.20;73.90;;;;;;5014204;28;20433;-80
2022/03/18 10:50:14;;;;;;;56.97;24.37;;;10.10;74.20;;;;;;4999463;28;20436;-78
2022/03/18 10:52:40;;;;;;;53.20;22.63;;;10.30;74.30;;;;;;4998182;28;21263;-80
2022/03/18 10:55:19;;;;;;;58.00;24.47;;;10.30;74.00;;;;;;4996598;28;20438;-79
2022/03/18 10:58:11;;;;;;;48.87;23.80;;;10.50;73.70;;;;;;5014751;28;20249;-77
2022/03/18 11:00:43;;;;;;;51.47;23.13;;;10.40;73.60;;;;;;5013681;28;20491;-78
2022/03/18 11:03:09;;;;;;;53.23;23.60;;;10.80;73.30;;;;;;5002609;28;20425;-79
2022/03/18 11:05:37;;;;;;;49.23;23.30;;;11.00;72.30;;;;;;5020881;28;20460;-79
2022/03/18 11:08:10;;;;;;;51.87;23.53;;;11.00;71.60;;;;;;5021829;28;20917;-75
2022/03/18 11:13:28;;;;;;;46.70;23.23;;;11.10;70.70;;;;;;5025330;28;20432;-78
2022/03/18 11:15:55;;;;;;;49.83;22.73;;;11.20;70.70;;;;;;5025060;28;20458;-78
2022/03/18 11:18:21;;;;;;;43.10;22.30;;;11.00;71.60;;;;;;5021634;28;20421;-78
2022/03/18 11:20:50;;;;;;;55.03;24.53;;;11.10;71.40;;;;;;5009468;28;20464;-78
2022/03/18 11:23:19;;;;;;;51.80;23.07;;;11.30;70.80;;;;;;5069304;28;20493;-79
2022/03/18 11:25:51;;;;;;;47.23;23.00;;;11.00;71.60;;;;;;5099678;28;20418;-78
2022/03/18 11:28:20;;;;;;;51.90;23.10;;;10.90;72.40;;;;;;5084809;28;20417;-81
2022/03/18 11:30:48;;;;;;;51.87;24.10;;;11.00;72.70;;;;;;5100203;28;20498;-79
2022/03/18 11:33:18;;;;;;;49.23;23.90;;;11.00;73.20;;;;;;5097424;28;20417;-79
2022/03/18 11:35:50;;;;;;;51.93;24.30;;;10.90;73.90;;;;;;5094703;28;20500;-81
2022/03/18 11:38:30;;;;;;;44.03;22.07;;;11.10;73.50;;;;;;5095249;28;20493;-80
2022/03/18 11:41:02;;;;;;;47.23;23.10;;;11.30;72.90;;;;;;5098286;28;20441;-79
2022/03/18 11:43:35;;;;;;;43.17;22.30;;;11.70;71.80;;;;;;5105571;28;20808;-80
2022/03/18 11:46:13;;;;;;;48.37;23.90;;;11.90;70.80;;;;;;5094204;28;20409;-78
2022/03/18 11:48:52;;;;;;;54.47;24.10;;;11.50;71.00;;;;;;5095280;28;20516;-80
2022/03/18 11:51:30;;;;;;;55.20;23.60;;;11.40;72.00;;;;;;5087655;28;20498;-82
2022/03/18 11:54:10;;;;;;;51.90;23.13;;;11.70;71.60;;;;;;5077833;28;20532;-81
2022/03/18 11:56:39;;;;;;;51.37;23.50;;;11.90;70.10;;;;;;5101109;28;20415;-78
2022/03/18 11:59:32;;;;;;;43.13;22.33;;;11.80;70.70;;;;;;5104856;28;20467;-78
2022/03/18 12:02:05;;;;;;;49.27;22.90;;;11.60;70.10;;;;;;5082788;28;20451;-80
2022/03/18 12:04:34;;;;;;;50.50;24.00;;;11.60;70.50;;;;;;5079465;28;20417;-80
2022/03/18 12:07:19;;;;;;;48.10;23.00;;;11.70;70.50;;;;;;5082806;28;20421;-80
2022/03/18 12:09:51;;;;;;;46.80;22.50;;;11.80;70.20;;;;;;5085885;28;20471;-78
2022/03/18 12:12:26;;;;;;;52.60;24.53;;;11.70;70.20;;;;;;5110483;28;20441;-80
2022/03/18 12:14:53;;;;;;;51.27;25.13;;;11.70;70.20;;;;;;5100132;28;20401;-78
2022/03/18 12:17:21;;;;;;;43.60;22.90;;;11.70;70.20;;;;;;5119270;28;20499;-78
2022/03/18 12:19:49;;;;;;;52.10;23.77;;;11.40;71.00;;;;;;5111145;28;20471;-78
2022/03/18 12:22:16;;;;;;;46.13;24.50;;;11.40;71.60;;;;;;5091802;28;20469;-79
2022/03/18 12:24:41;;;;;;;51.30;24.03;;;11.50;71.30;;;;;;5110312;28;20492;-80
2022/03/18 12:27:07;;;;;;;45.63;23.97;;;11.50;71.10;;;;;;5104261;28;20433;-79
2022/03/18 12:29:33;;;;;;;50.80;24.07;;;11.60;71.30;;;;;;5116685;28;20187;-79
2022/03/18 12:32:08;;;;;;;53.57;24.97;;;11.80;70.70;;;;;;5099741;28;20207;-82
2022/03/18 12:34:36;;;;;;;47.53;24.30;;;11.90;69.90;;;;;;5114565;28;20198;-80
2022/03/18 12:37:03;;;;;;;50.27;24.90;;;11.80;70.20;;;;;;5102597;28;20413;-80
2022/03/18 12:39:29;;;;;;;61.57;25.77;;;11.70;70.10;;;;;;5101863;28;20528;-78
2022/03/18 12:42:11;;;;;;;54.00;25.67;;;11.60;70.20;;;;;;5101689;28;20468;-81
2022/03/18 12:44:36;;;;;;;51.57;24.03;;;11.60;70.70;;;;;;5093728;28;20421;-81
2022/03/18 12:47:07;;;;;;;51.70;25.13;;;11.80;70.20;;;;;;5097994;28;20493;-82
2022/03/18 12:49:36;;;;;;;47.73;24.20;;;12.00;69.50;;;;;;5100836;28;21045;-81
2022/03/18 12:52:14;;;;;;;53.10;24.47;;;12.10;68.90;;;;;;5097153;28;20883;-80
2022/03/18 12:55:07;;;;;;;46.90;24.87;;;12.20;68.30;;;;;;5105400;28;20409;-80
2022/03/18 12:57:37;;;;;;;49.20;25.20;;;12.30;67.70;;;;;;5073746;28;20425;-80
2022/03/18 13:00:06;;;;;;;46.03;24.13;;;12.50;67.20;;;;;;5077095;28;20453;-80
2022/03/18 13:02:34;;;;;;;49.90;25.10;;;12.60;66.60;;;;;;5095821;28;20848;-80